Pinheiros, Brazil
Current Conditions -  °F | °C
As of 5:00 AM on Tuesday 21 Oct 2014 (Local Time) from SBVT Reporting Station
Broken Clouds Broken Clouds  
Wind Chill: 75°   Ceiling: 7000
Heat Index: 75°   Visibility: 6mi
Dew Point: 66°   Wind: 15mph
Humidity: 73%   Direction: 210°SSW
Pressure: 29.97"   Gusts: NA
Location:  18.37°S, 40.21°W
Report Text: SBVT 210700Z 21013KT 9999 FEW020 BKN070 24/19 Q1015
Loading
Personal Weather Stations






























Interactive Weather Map
Tropical Storm Tracking
New forecast layout! Learn more

10-Day Weather Forecast

Advertisements
Track Severe Weather on mobile